Language: 


Des rapports , des résumés tant et plus, au choix de chacun....


Données Historiques de Météogheer
Journalier Rapport pour Février 25, 2017 Unitée:  Les deux    Impériale   Métrique
Suivant Jour »
Journalier Hebdomadaire Mensuel Annuel Sur mesure
  Max: Min: Moyenne:
Température: 51.6 °F /  10.9 °C 32 °F /  0.0 °C 42.4 °F /  5.8 °C
Point de rosée: 41.7 °F /  5.4 °C 31.1 °F /  -0.5 °C 37.2 °F /  2.9 °C
Humidité: 98% 0% 83%
Vent: 17.2mph /  27.7km/h - 6mph /  9.6km/h
Rafales: 23mph /  37.0km/h - -
Vent- - SSW
Pression: 30.2 in /  1020.9 hPa 29.9 in /  1012.1 hPa -
Pluie: 0 in /  0.0 mm    
Historical Graphs
 
 
Données tabulaires pour Février 25, 2017
Heure Température Point de rosée Pression Vent Vent Rafales Humidité Pluie Taux (Horaire) Conditions
00:02 32.4 °F /  0.2 °C 31.1 °F /  -0.5 °C 30.2in /  1020.9hPa Calm   3.4mph /  5.5km/h 95% 0in /  0.0mm
00:07 32.5 °F /  0.3 °C 31.3 °F /  -0.4 °C 30.1in /  1019.9hPa Calm   3.4mph /  5.5km/h 95% 0in /  0.0mm
00:12 32.7 °F /  0.4 °C 31.5 °F /  -0.3 °C 30.1in /  1019.9hPa SSW 0.9mph /  1.4km/h 3.4mph /  5.5km/h 95% 0in /  0.0mm
00:17 33.1 °F /  0.6 °C 31.8 °F /  -0.1 °C 30.1in /  1019.9hPa SSW 3.4mph /  5.5km/h 4.5mph /  7.2km/h 95% 0in /  0.0mm
00:22 33.3 °F /  0.7 °C 32.2 °F /  0.1 °C 30.1in /  1019.9hPa SSW 2mph /  3.2km/h 4.5mph /  7.2km/h 96% 0in /  0.0mm
00:27 33.4 °F /  0.8 °C 32.4 °F /  0.2 °C 30.1in /  1019.9hPa South 0.9mph /  1.4km/h 4.3mph /  6.9km/h 96% 0in /  0.0mm
00:32 33.6 °F /  0.9 °C 32.5 °F /  0.3 °C 30.1in /  1019.9hPa SSW 3.4mph /  5.5km/h 4.3mph /  6.9km/h 96% 0in /  0.0mm
00:37 34 °F /  1.1 °C 32.9 °F /  0.5 °C 30.1in /  1019.9hPa Calm   4mph /  6.4km/h 96% 0in /  0.0mm
00:42 34.2 °F /  1.2 °C 33.1 °F /  0.6 °C 30.1in /  1019.9hPa South 3.4mph /  5.5km/h 4.3mph /  6.9km/h 96% 0in /  0.0mm
00:47 34.3 °F /  1.3 °C 33.3 °F /  0.7 °C 30.1in /  1019.9hPa South 2.7mph /  4.3km/h 4.3mph /  6.9km/h 96% 0in /  0.0mm
00:52 34.5 °F /  1.4 °C 33.4 °F /  0.8 °C 30.2in /  1020.9hPa SSW 2.7mph /  4.3km/h 4.9mph /  7.9km/h 96% 0in /  0.0mm
00:57 34.5 °F /  1.4 °C 33.6 °F /  0.9 °C 30.2in /  1020.9hPa South 3.6mph /  5.8km/h 4.9mph /  7.9km/h 96% 0in /  0.0mm
01:02 34.9 °F /  1.6 °C 33.8 °F /  1.0 °C 30.2in /  1020.9hPa SSW 3.1mph /  5.0km/h 4.3mph /  6.9km/h 96% 0in /  0.0mm
01:07 35.1 °F /  1.7 °C 34 °F /  1.1 °C 30.2in /  1020.9hPa SSW 2.9mph /  4.7km/h 4.9mph /  7.9km/h 96% 0in /  0.0mm
01:12 35.1 °F /  1.7 °C 34 °F /  1.1 °C 30.2in /  1020.9hPa SW 2mph /  3.2km/h 4.9mph /  7.9km/h 96% 0in /  0.0mm
01:17 35.1 °F /  1.7 °C 34 °F /  1.1 °C 30.2in /  1020.9hPa Calm   4.3mph /  6.9km/h 96% 0in /  0.0mm
01:22 35.1 °F /  1.7 °C 34 °F /  1.1 °C 30.1in /  1019.9hPa SSW 2.7mph /  4.3km/h 4.3mph /  6.9km/h 96% 0in /  0.0mm
01:23 35.1 °F /  1.7 °C 34 °F /  1.1 °C 30.1in /  1019.9hPa SSW 3.8mph /  6.1km/h 4.3mph /  6.9km/h 96% 0in /  0.0mm
01:28 34.9 °F /  1.6 °C 33.4 °F /  0.8 °C 30.1in /  1019.9hPa SW 2.5mph /  4.0km/h 4.3mph /  6.9km/h 95% 0in /  0.0mm
01:33 34.9 °F /  1.6 °C 33.4 °F /  0.8 °C 30.1in /  1019.9hPa SW 1.1mph /  1.8km/h 3.8mph /  6.1km/h 95% 0in /  0.0mm
01:38 34.9 °F /  1.6 °C 33.4 °F /  0.8 °C 30.2in /  1020.9hPa West 0.9mph /  1.4km/h 3.8mph /  6.1km/h 95% 0in /  0.0mm
01:43 34.9 °F /  1.6 °C 33.4 °F /  0.8 °C 30.2in /  1020.9hPa South 2mph /  3.2km/h 3.8mph /  6.1km/h 95% 0in /  0.0mm
01:48 34.5 °F /  1.4 °C 33.4 °F /  0.8 °C 30.2in /  1020.9hPa Calm   3.8mph /  6.1km/h 95% 0in /  0.0mm
01:53 34.5 °F /  1.4 °C 33.3 °F /  0.7 °C 30.2in /  1020.9hPa Calm   2.7mph /  4.3km/h 95% 0in /  0.0mm
01:58 34.3 °F /  1.3 °C 33.1 °F /  0.6 °C 30.2in /  1020.9hPa WSW 2mph /  3.2km/h 2.7mph /  4.3km/h 95% 0in /  0.0mm
02:03 34.2 °F /  1.2 °C 32.7 °F /  0.4 °C 30.2in /  1020.9hPa Calm   2.7mph /  4.3km/h 95% 0in /  0.0mm
02:08 34 °F /  1.1 °C 32.7 °F /  0.4 °C 30.1in /  1019.9hPa Calm   2mph /  3.2km/h 95% 0in /  0.0mm
02:13 33.8 °F /  1.0 °C 32.5 °F /  0.3 °C 30.1in /  1019.9hPa SW 2.2mph /  3.5km/h 2.2mph /  3.5km/h 95% 0in /  0.0mm
02:18 33.6 °F /  0.9 °C 32.4 °F /  0.2 °C 30.1in /  1019.9hPa SSW 2.5mph /  4.0km/h 3.4mph /  5.5km/h 95% 0in /  0.0mm
02:23 33.6 °F /  0.9 °C 32.4 °F /  0.2 °C 30.1in /  1019.9hPa WSW 2.5mph /  4.0km/h 3.4mph /  5.5km/h 95% 0in /  0.0mm
02:28 33.6 °F /  0.9 °C 32.4 °F /  0.2 °C 30.1in /  1019.9hPa WSW 3.1mph /  5.0km/h 3.4mph /  5.5km/h 95% 0in /  0.0mm
02:33 34 °F /  1.1 °C 32.7 °F /  0.4 °C 30.1in /  1019.9hPa WSW 2.5mph /  4.0km/h 4.3mph /  6.9km/h 95% 0in /  0.0mm
02:38 33.8 °F /  1.0 °C 32.7 °F /  0.4 °C 30.1in /  1019.9hPa WSW 2.7mph /  4.3km/h 4.3mph /  6.9km/h 96% 0in /  0.0mm
02:43 33.8 °F /  1.0 °C 32.7 °F /  0.4 °C 30.1in /  1019.9hPa Calm   3.1mph /  5.0km/h 96% 0in /  0.0mm
02:48 33.6 °F /  0.9 °C 32.5 °F /  0.3 °C 30.1in /  1019.9hPa South 2.5mph /  4.0km/h 3.1mph /  5.0km/h 96% 0in /  0.0mm
02:53 33.6 °F /  0.9 °C 32.5 °F /  0.3 °C 30.1in /  1019.9hPa SSW 2.7mph /  4.3km/h 3.4mph /  5.5km/h 96% 0in /  0.0mm
02:58 33.6 °F /  0.9 °C 32.5 °F /  0.3 °C 30.1in /  1019.9hPa Calm   3.4mph /  5.5km/h 96% 0in /  0.0mm
03:03 33.4 °F /  0.8 °C 32.4 °F /  0.2 °C 30.1in /  1019.9hPa Calm   2.9mph /  4.7km/h 96% 0in /  0.0mm
03:08 32 °F /  0.0 °C 32.4 °F /  0.2 °C 30.1in /  1018.8hPa SW 1.3mph /  2.1km/h 2.2mph /  3.5km/h 0% 0in /  0.0mm
03:13 33.4 °F /  0.8 °C 32.4 °F /  0.2 °C 30.1in /  1018.8hPa SSW 2.5mph /  4.0km/h 3.4mph /  5.5km/h 96% 0in /  0.0mm
03:18 33.4 °F /  0.8 °C 32.4 °F /  0.2 °C 30.1in /  1018.8hPa SSW 2.2mph /  3.5km/h 3.4mph /  5.5km/h 96% 0in /  0.0mm
03:23 33.4 °F /  0.8 °C 32.7 °F /  0.4 °C 30.1in /  1018.8hPa SSW 2.7mph /  4.3km/h 3.1mph /  5.0km/h 97% 0in /  0.0mm
03:28 33.6 °F /  0.9 °C 32.7 °F /  0.4 °C 30.1in /  1018.8hPa SSW 2mph /  3.2km/h 2.9mph /  4.7km/h 97% 0in /  0.0mm
03:33 33.6 °F /  0.9 °C 32.7 °F /  0.4 °C 30.1in /  1018.8hPa SSW 2.5mph /  4.0km/h 3.6mph /  5.8km/h 97% 0in /  0.0mm
03:38 33.6 °F /  0.9 °C 32.7 °F /  0.4 °C 30.1in /  1018.8hPa South 2.5mph /  4.0km/h 3.6mph /  5.8km/h 97% 0in /  0.0mm
03:43 33.8 °F /  1.0 °C 33.1 °F /  0.6 °C 30.1in /  1018.8hPa South 2.9mph /  4.7km/h 3.6mph /  5.8km/h 97% 0in /  0.0mm
03:48 34 °F /  1.1 °C 33.3 °F /  0.7 °C 30.1in /  1018.8hPa SSW 2mph /  3.2km/h 3.8mph /  6.1km/h 97% 0in /  0.0mm
03:53 34.2 °F /  1.2 °C 33.4 °F /  0.8 °C 30.1in /  1018.8hPa SW 2.9mph /  4.7km/h 4mph /  6.4km/h 97% 0in /  0.0mm
03:58 34.3 °F /  1.3 °C 33.4 °F /  0.8 °C 30.1in /  1018.8hPa SW 2.7mph /  4.3km/h 4mph /  6.4km/h 97% 0in /  0.0mm
04:03 34.3 °F /  1.3 °C 33.4 °F /  0.8 °C 30.1in /  1018.8hPa SSW 2.2mph /  3.5km/h 3.6mph /  5.8km/h 97% 0in /  0.0mm
04:08 34.3 °F /  1.3 °C 33.4 °F /  0.8 °C 30.1in /  1018.2hPa SSW 1.6mph /  2.6km/h 3.8mph /  6.1km/h 97% 0in /  0.0mm
04:13 34.3 °F /  1.3 °C 33.4 °F /  0.8 °C 30.1in /  1018.2hPa WSW 3.4mph /  5.5km/h 3.8mph /  6.1km/h 97% 0in /  0.0mm
04:18 34.5 °F /  1.4 °C 33.6 °F /  0.9 °C 30.1in /  1018.2hPa SW 2.2mph /  3.5km/h 4mph /  6.4km/h 97% 0in /  0.0mm
04:23 34.5 °F /  1.4 °C 33.6 °F /  0.9 °C 30.1in /  1018.2hPa SSW 2mph /  3.2km/h 4.9mph /  7.9km/h 97% 0in /  0.0mm
04:28 34.5 °F /  1.4 °C 34 °F /  1.1 °C 30.1in /  1018.2hPa SW 2.9mph /  4.7km/h 5.4mph /  8.7km/h 97% 0in /  0.0mm
04:29 34.5 °F /  1.4 °C 34 °F /  1.1 °C 30.1in /  1018.2hPa WSW 2.9mph /  4.7km/h 5.4mph /  8.7km/h 97% 0in /  0.0mm
04:34 34.5 °F /  1.4 °C 34 °F /  1.1 °C 30.1in /  1018.2hPa SSW 2.5mph /  4.0km/h 5.4mph /  8.7km/h 97% 0in /  0.0mm
04:39 34.9 °F /  1.6 °C 34.2 °F /  1.2 °C 30.1in /  1018.8hPa WSW 2mph /  3.2km/h 4mph /  6.4km/h 97% 0in /  0.0mm
04:44 34.5 °F /  1.4 °C 34 °F /  1.1 °C 30.1in /  1018.8hPa SW 2.7mph /  4.3km/h 3.4mph /  5.5km/h 97% 0in /  0.0mm
04:49 34.5 °F /  1.4 °C 33.6 °F /  0.9 °C 30.1in /  1018.8hPa SSW 3.8mph /  6.1km/h 4mph /  6.4km/h 97% 0in /  0.0mm
04:54 34.5 °F /  1.4 °C 34 °F /  1.1 °C 30.1in /  1018.8hPa SW 3.4mph /  5.5km/h 4mph /  6.4km/h 97% 0in /  0.0mm
04:59 34.9 °F /  1.6 °C 34.2 °F /  1.2 °C 30.1in /  1018.8hPa South 2.5mph /  4.0km/h 6.3mph /  10.1km/h 97% 0in /  0.0mm
05:04 35.1 °F /  1.7 °C 34.5 °F /  1.4 °C 30.1in /  1018.8hPa SSW 3.6mph /  5.8km/h 6.3mph /  10.1km/h 98% 0in /  0.0mm
05:09 35.2 °F /  1.8 °C 34.7 °F /  1.5 °C 30.1in /  1018.8hPa South 4.7mph /  7.6km/h 6.5mph /  10.5km/h 98% 0in /  0.0mm
05:14 35.4 °F /  1.9 °C 34.9 °F /  1.6 °C 30.1in /  1018.8hPa South 4.7mph /  7.6km/h 6.5mph /  10.5km/h 98% 0in /  0.0mm
05:19 35.4 °F /  1.9 °C 34.9 °F /  1.6 °C 30.1in /  1018.8hPa South 3.8mph /  6.1km/h 6mph /  9.7km/h 98% 0in /  0.0mm
05:24 35.4 °F /  1.9 °C 34.9 °F /  1.6 °C 30.1in /  1018.8hPa South 5.6mph /  9.0km/h 7.2mph /  11.6km/h 98% 0in /  0.0mm
05:29 35.4 °F /  1.9 °C 34.9 °F /  1.6 °C 30.1in /  1018.8hPa South 4.3mph /  6.9km/h 7.2mph /  11.6km/h 98% 0in /  0.0mm
05:34 35.4 °F /  1.9 °C 34.9 °F /  1.6 °C 30.1in /  1018.8hPa South 4.5mph /  7.2km/h 7.8mph /  12.6km/h 97% 0in /  0.0mm
05:39 35.4 °F /  1.9 °C 34.9 °F /  1.6 °C 30.1in /  1018.8hPa South 5.8mph /  9.3km/h 7.8mph /  12.6km/h 97% 0in /  0.0mm
05:44 35.8 °F /  2.1 °C 34.9 °F /  1.6 °C 30.1in /  1018.8hPa South 4mph /  6.4km/h 6mph /  9.7km/h 97% 0in /  0.0mm
05:49 35.8 °F /  2.1 °C 34.9 °F /  1.6 °C 30.1in /  1018.8hPa South 3.6mph /  5.8km/h 6.5mph /  10.5km/h 97% 0in /  0.0mm
05:54 35.8 °F /  2.1 °C 34.9 °F /  1.6 °C 30.1in /  1018.8hPa SSW 6mph /  9.7km/h 6.5mph /  10.5km/h 97% 0in /  0.0mm
05:59 35.8 °F /  2.1 °C 34.9 °F /  1.6 °C 30.1in /  1018.8hPa SSW 2.7mph /  4.3km/h 6mph /  9.7km/h 97% 0in /  0.0mm
06:04 36 °F /  2.2 °C 35.1 °F /  1.7 °C 30.1in /  1018.8hPa SSW 5.4mph /  8.7km/h 6.5mph /  10.5km/h 97% 0in /  0.0mm
06:09 36.1 °F /  2.3 °C 35.2 °F /  1.8 °C 30.1in /  1018.8hPa South 3.8mph /  6.1km/h 7.8mph /  12.6km/h 97% 0in /  0.0mm
06:14 36.1 °F /  2.3 °C 35.2 °F /  1.8 °C 30.1in /  1018.8hPa SW 4.3mph /  6.9km/h 7.8mph /  12.6km/h 97% 0in /  0.0mm
06:19 36.1 °F /  2.3 °C 35.2 °F /  1.8 °C 30.1in /  1018.8hPa SSW 4mph /  6.4km/h 6.3mph /  10.1km/h 97% 0in /  0.0mm
06:24 36.1 °F /  2.3 °C 35.2 °F /  1.8 °C 30.1in /  1018.8hPa SSW 3.8mph /  6.1km/h 5.8mph /  9.3km/h 97% 0in /  0.0mm
06:29 36.1 °F /  2.3 °C 35.2 °F /  1.8 °C 30.1in /  1018.8hPa SSW 4.7mph /  7.6km/h 7.6mph /  12.2km/h 97% 0in /  0.0mm
06:34 36.1 °F /  2.3 °C 35.2 °F /  1.8 °C 30.1in /  1018.8hPa SSW 3.4mph /  5.5km/h 7.6mph /  12.2km/h 97% 0in /  0.0mm
06:39 36.1 °F /  2.3 °C 35.4 °F /  1.9 °C 30.1in /  1018.8hPa SW 5.4mph /  8.7km/h 9.6mph /  15.4km/h 97% 0in /  0.0mm
06:44 36.1 °F /  2.3 °C 35.4 °F /  1.9 °C 30.1in /  1018.8hPa South 6.5mph /  10.5km/h 9.6mph /  15.4km/h 97% 0in /  0.0mm
06:49 36.1 °F /  2.3 °C 35.2 °F /  1.8 °C 30.1in /  1018.8hPa SSW 4mph /  6.4km/h 8.1mph /  13.0km/h 96% 0in /  0.0mm
06:54 36.1 °F /  2.3 °C 35.1 °F /  1.7 °C 30.1in /  1018.8hPa SW 4.3mph /  6.9km/h 7.8mph /  12.6km/h 96% 0in /  0.0mm
06:59 36.1 °F /  2.3 °C 35.1 °F /  1.7 °C 30.1in /  1018.8hPa SSW 5.8mph /  9.3km/h 7.8mph /  12.6km/h 96% 0in /  0.0mm
07:04 36.1 °F /  2.3 °C 35.1 °F /  1.7 °C 30.1in /  1018.8hPa SSW 3.6mph /  5.8km/h 7.2mph /  11.6km/h 96% 0in /  0.0mm
07:09 36.1 °F /  2.3 °C 35.1 °F /  1.7 °C 30.1in /  1018.8hPa SSW 6.3mph /  10.1km/h 7.2mph /  11.6km/h 96% 0in /  0.0mm
07:14 36.1 °F /  2.3 °C 35.1 °F /  1.7 °C 30.1in /  1018.8hPa SW 3.1mph /  5.0km/h 6.3mph /  10.1km/h 96% 0in /  0.0mm
07:19 36.1 °F /  2.3 °C 35.2 °F /  1.8 °C 30.1in /  1018.8hPa SSW 2.9mph /  4.7km/h 6.5mph /  10.5km/h 96% 0in /  0.0mm
07:24 36.1 °F /  2.3 °C 35.2 °F /  1.8 °C 30.1in /  1018.2hPa SSW 4mph /  6.4km/h 6.5mph /  10.5km/h 96% 0in /  0.0mm
07:29 36.1 °F /  2.3 °C 34.9 °F /  1.6 °C 30.1in /  1018.2hPa SSW 4mph /  6.4km/h 6.5mph /  10.5km/h 95% 0in /  0.0mm
07:34 36.1 °F /  2.3 °C 34.9 °F /  1.6 °C 30.1in /  1018.2hPa SSW 6mph /  9.7km/h 6.5mph /  10.5km/h 95% 0in /  0.0mm
07:39 36.1 °F /  2.3 °C 34.9 °F /  1.6 °C 30.1in /  1018.8hPa South 3.8mph /  6.1km/h 6.3mph /  10.1km/h 95% 0in /  0.0mm
07:44 36.1 °F /  2.3 °C 34.9 °F /  1.6 °C 30.1in /  1018.8hPa SSW 5.8mph /  9.3km/h 6.9mph /  11.1km/h 95% 0in /  0.0mm
07:49 36.3 °F /  2.4 °C 35.1 °F /  1.7 °C 30.1in /  1018.8hPa South 8.1mph /  13.0km/h 8.1mph /  13.0km/h 95% 0in /  0.0mm
07:54 36.3 °F /  2.4 °C 35.1 °F /  1.7 °C 30.1in /  1018.8hPa South 4.7mph /  7.6km/h 10.1mph /  16.3km/h 95% 0in /  0.0mm
07:59 36.7 °F /  2.6 °C 35.1 °F /  1.7 °C 30.1in /  1018.8hPa SSW 5.6mph /  9.0km/h 10.3mph /  16.6km/h 94% 0in /  0.0mm
08:04 36.7 °F /  2.6 °C 35.1 °F /  1.7 °C 30.1in /  1018.8hPa South 4mph /  6.4km/h 10.3mph /  16.6km/h 94% 0in /  0.0mm
08:09 36.9 °F /  2.7 °C 34.9 °F /  1.6 °C 30.1in /  1018.2hPa South 6mph /  9.7km/h 8.9mph /  14.3km/h 93% 0in /  0.0mm
08:14 36.9 °F /  2.7 °C 34.9 °F /  1.6 °C 30.1in /  1018.2hPa SSW 6mph /  9.7km/h 8.9mph /  14.3km/h 93% 0in /  0.0mm
08:19 36.9 °F /  2.7 °C 34.7 °F /  1.5 °C 30.1in /  1018.2hPa South 5.6mph /  9.0km/h 8.7mph /  14.0km/h 92% 0in /  0.0mm
08:24 36.9 °F /  2.7 °C 34.7 °F /  1.5 °C 30.1in /  1018.8hPa SSW 7.4mph /  11.9km/h 7.4mph /  11.9km/h 92% 0in /  0.0mm
08:29 36.9 °F /  2.7 °C 34.9 °F /  1.6 °C 30.1in /  1018.8hPa South 3.8mph /  6.1km/h 7.8mph /  12.6km/h 92% 0in /  0.0mm
08:34 37 °F /  2.8 °C 35.1 °F /  1.7 °C 30.1in /  1018.8hPa South 6.7mph /  10.8km/h 7.8mph /  12.6km/h 92% 0in /  0.0mm
08:39 37.2 °F /  2.9 °C 35.2 °F /  1.8 °C 30.1in /  1018.8hPa SSW 4.9mph /  7.9km/h 8.1mph /  13.0km/h 92% 0in /  0.0mm
08:44 37.6 °F /  3.1 °C 35.2 °F /  1.8 °C 30.1in /  1018.8hPa SSW 7.2mph /  11.6km/h 10.3mph /  16.6km/h 91% 0in /  0.0mm
08:49 37.8 °F /  3.2 °C 35.4 °F /  1.9 °C 30.1in /  1018.8hPa SSW 12.5mph /  20.1km/h 12.5mph /  20.1km/h 91% 0in /  0.0mm
08:54 38.5 °F /  3.6 °C 36.1 °F /  2.3 °C 30.1in /  1018.8hPa SSW 10.1mph /  16.3km/h 12.5mph /  20.1km/h 91% 0in /  0.0mm
08:59 38.5 °F /  3.6 °C 35.8 °F /  2.1 °C 30.1in /  1018.8hPa SSW 8.7mph /  14.0km/h 12.5mph /  20.1km/h 90% 0in /  0.0mm
09:04 38.5 °F /  3.6 °C 35.4 °F /  1.9 °C 30.1in /  1018.8hPa WSW 5.4mph /  8.7km/h 12.5mph /  20.1km/h 89% 0in /  0.0mm
09:09 38.5 °F /  3.6 °C 35.1 °F /  1.7 °C 30.1in /  1018.8hPa SSW 6.5mph /  10.5km/h 12.3mph /  19.8km/h 88% 0in /  0.0mm
09:14 38.5 °F /  3.6 °C 35.2 °F /  1.8 °C 30.1in /  1018.8hPa SSW 5.8mph /  9.3km/h 10.1mph /  16.3km/h 88% 0in /  0.0mm
09:19 38.7 °F /  3.7 °C 35.4 °F /  1.9 °C 30.1in /  1018.8hPa SSW 5.4mph /  8.7km/h 9.8mph /  15.8km/h 88% 0in /  0.0mm
09:24 38.7 °F /  3.7 °C 35.4 °F /  1.9 °C 30.1in /  1018.8hPa SSW 7.6mph /  12.2km/h 8.7mph /  14.0km/h 88% 0in /  0.0mm
09:29 38.8 °F /  3.8 °C 35.6 °F /  2.0 °C 30.1in /  1018.8hPa South 6mph /  9.7km/h 10.5mph /  16.9km/h 88% 0in /  0.0mm
09:34 39 °F /  3.9 °C 35.4 °F /  1.9 °C 30.1in /  1018.8hPa WSW 10.5mph /  16.9km/h 11.4mph /  18.3km/h 87% 0in /  0.0mm
09:39 39 °F /  3.9 °C 35.4 °F /  1.9 °C 30.1in /  1018.8hPa South 8.1mph /  13.0km/h 12.1mph /  19.5km/h 87% 0in /  0.0mm
09:44 39.4 °F /  4.1 °C 36 °F /  2.2 °C 30.1in /  1018.8hPa SSW 5.8mph /  9.3km/h 12.1mph /  19.5km/h 87% 0in /  0.0mm
09:49 39.6 °F /  4.2 °C 36 °F /  2.2 °C 30.1in /  1018.8hPa South 6.3mph /  10.1km/h 10.3mph /  16.6km/h 87% 0in /  0.0mm
09:54 39.6 °F /  4.2 °C 36 °F /  2.2 °C 30.1in /  1018.8hPa SSW 8.1mph /  13.0km/h 10.3mph /  16.6km/h 87% 0in /  0.0mm
09:59 39.6 °F /  4.2 °C 36 °F /  2.2 °C 30.1in /  1018.8hPa SSW 5.6mph /  9.0km/h 10.3mph /  16.6km/h 87% 0in /  0.0mm
10:04 40.5 °F /  4.7 °C 36.7 °F /  2.6 °C 30.1in /  1018.8hPa South 5.4mph /  8.7km/h 10.1mph /  16.3km/h 86% 0in /  0.0mm
10:09 40.6 °F /  4.8 °C 36.9 °F /  2.7 °C 30.1in /  1018.8hPa SSW 7.8mph /  12.6km/h 10.7mph /  17.2km/h 86% 0in /  0.0mm
10:14 41.2 °F /  5.1 °C 37 °F /  2.8 °C 30.1in /  1018.8hPa SSW 4.7mph /  7.6km/h 10.7mph /  17.2km/h 85% 0in /  0.0mm
10:19 41.5 °F /  5.3 °C 37.4 °F /  3.0 °C 30.1in /  1018.8hPa SSW 7.4mph /  11.9km/h 11mph /  17.7km/h 85% 0in /  0.0mm
10:24 41.9 °F /  5.5 °C 37.8 °F /  3.2 °C 30.1in /  1018.8hPa SSW 8.5mph /  13.7km/h 12.3mph /  19.8km/h 85% 0in /  0.0mm
10:29 42.1 °F /  5.6 °C 37.6 °F /  3.1 °C 30.1in /  1018.8hPa SW 8.5mph /  13.7km/h 12.3mph /  19.8km/h 84% 0in /  0.0mm
10:34 42.4 °F /  5.8 °C 37.6 °F /  3.1 °C 30.1in /  1018.8hPa South 6mph /  9.7km/h 12.1mph /  19.5km/h 83% 0in /  0.0mm
10:39 42.6 °F /  5.9 °C 37.8 °F /  3.2 °C 30.1in /  1018.8hPa SSW 6.5mph /  10.5km/h 10.3mph /  16.6km/h 83% 0in /  0.0mm
10:44 43 °F /  6.1 °C 37.6 °F /  3.1 °C 30.1in /  1018.8hPa SW 5.8mph /  9.3km/h 11mph /  17.7km/h 81% 0in /  0.0mm
10:49 43.3 °F /  6.3 °C 37.9 °F /  3.3 °C 30.1in /  1018.8hPa SSW 6mph /  9.7km/h 11mph /  17.7km/h 81% 0in /  0.0mm
10:54 43.5 °F /  6.4 °C 37.9 °F /  3.3 °C 30.1in /  1018.2hPa SSW 8.5mph /  13.7km/h 11mph /  17.7km/h 81% 0in /  0.0mm
10:59 43.5 °F /  6.4 °C 37.6 °F /  3.1 °C 30.1in /  1018.2hPa SSW 9.8mph /  15.8km/h 12.8mph /  20.6km/h 79% 0in /  0.0mm
11:04 43.9 °F /  6.6 °C 36.7 °F /  2.6 °C 30.1in /  1018.2hPa SSW 8.1mph /  13.0km/h 15.2mph /  24.5km/h 76% 0in /  0.0mm
11:09 43.9 °F /  6.6 °C 36.7 °F /  2.6 °C 30.1in /  1018.8hPa SSW 8.5mph /  13.7km/h 15.2mph /  24.5km/h 76% 0in /  0.0mm
11:14 44.1 °F /  6.7 °C 36.7 °F /  2.6 °C 30.1in /  1018.8hPa SSW 12.8mph /  20.6km/h 17.7mph /  28.5km/h 75% 0in /  0.0mm
11:19 44.1 °F /  6.7 °C 36.7 °F /  2.6 °C 30.1in /  1018.8hPa SSW 8.7mph /  14.0km/h 17.7mph /  28.5km/h 75% 0in /  0.0mm
11:24 44.1 °F /  6.7 °C 36.7 °F /  2.6 °C 30.1in /  1018.8hPa SSW 10.1mph /  16.3km/h 14.8mph /  23.8km/h 75% 0in /  0.0mm
11:29 44.2 °F /  6.8 °C 36.7 °F /  2.6 °C 30.1in /  1018.8hPa SW 12.5mph /  20.1km/h 14.8mph /  23.8km/h 74% 0in /  0.0mm
11:34 44.4 °F /  6.9 °C 36.7 °F /  2.6 °C 30.1in /  1018.8hPa SSW 8.5mph /  13.7km/h 14.8mph /  23.8km/h 74% 0in /  0.0mm
11:39 44.8 °F /  7.1 °C 36.9 °F /  2.7 °C 30.1in /  1018.2hPa SW 8.5mph /  13.7km/h 12.5mph /  20.1km/h 74% 0in /  0.0mm
11:44 45.1 °F /  7.3 °C 36.9 °F /  2.7 °C 30.1in /  1018.2hPa SW 7.6mph /  12.2km/h 12.5mph /  20.1km/h 73% 0in /  0.0mm
11:49 45.3 °F /  7.4 °C 37.2 °F /  2.9 °C 30.1in /  1018.2hPa SSW 10.1mph /  16.3km/h 12.1mph /  19.5km/h 73% 0in /  0.0mm
11:54 45.7 °F /  7.6 °C 37 °F /  2.8 °C 30.1in /  1018.2hPa SW 10.3mph /  16.6km/h 12.1mph /  19.5km/h 72% 0in /  0.0mm
11:59 45.7 °F /  7.6 °C 37 °F /  2.8 °C 30.1in /  1018.2hPa SSW 8.1mph /  13.0km/h 10.3mph /  16.6km/h 72% 0in /  0.0mm
12:04 45.7 °F /  7.6 °C 37 °F /  2.8 °C 30.1in /  1018.2hPa SSW 13.2mph /  21.2km/h 13.2mph /  21.2km/h 72% 0in /  0.0mm
12:09 45.9 °F /  7.7 °C 36.9 °F /  2.7 °C 30.1in /  1018.2hPa SSW 8.7mph /  14.0km/h 13.2mph /  21.2km/h 71% 0in /  0.0mm
12:14 45.9 °F /  7.7 °C 37.4 °F /  3.0 °C 30.1in /  1018.2hPa South 6mph /  9.7km/h 11.9mph /  19.1km/h 72% 0in /  0.0mm
12:19 46.6 °F /  8.1 °C 37.6 °F /  3.1 °C 30.1in /  1018.2hPa South 5.6mph /  9.0km/h 14.8mph /  23.8km/h 71% 0in /  0.0mm
12:24 46.6 °F /  8.1 °C 37.2 °F /  2.9 °C 30.1in /  1018.2hPa SW 6.5mph /  10.5km/h 14.8mph /  23.8km/h 70% 0in /  0.0mm
12:29 46.9 °F /  8.3 °C 38.1 °F /  3.4 °C 30.1in /  1018.2hPa SSW 7.6mph /  12.2km/h 14.5mph /  23.3km/h 71% 0in /  0.0mm
12:34 47.3 °F /  8.5 °C 38.5 °F /  3.6 °C 30.1in /  1018.2hPa South 9.6mph /  15.4km/h 15.7mph /  25.3km/h 71% 0in /  0.0mm
12:39 47.7 °F /  8.7 °C 38.8 °F /  3.8 °C 30in /  1016.8hPa SSW 10.5mph /  16.9km/h 15.7mph /  25.3km/h 71% 0in /  0.0mm
12:44 47.7 °F /  8.7 °C 37.9 °F /  3.3 °C 30in /  1016.8hPa South 12.1mph /  19.5km/h 12.3mph /  19.8km/h 69% 0in /  0.0mm
12:49 48.2 °F /  9.0 °C 38.5 °F /  3.6 °C 30in /  1016.8hPa SSW 8.1mph /  13.0km/h 15.2mph /  24.5km/h 69% 0in /  0.0mm
12:54 48.4 °F /  9.1 °C 38.3 °F /  3.5 °C 30in /  1016.8hPa SSW 5.4mph /  8.7km/h 15.2mph /  24.5km/h 68% 0in /  0.0mm
12:59 49.1 °F /  9.5 °C 39.4 °F /  4.1 °C 30in /  1016.8hPa SSW 9.8mph /  15.8km/h 15.4mph /  24.8km/h 69% 0in /  0.0mm
13:04 49.5 °F /  9.7 °C 39.7 °F /  4.3 °C 30in /  1016.8hPa SW 14.5mph /  23.3km/h 15.4mph /  24.8km/h 69% 0in /  0.0mm
13:09 50 °F /  10.0 °C 40.3 °F /  4.6 °C 30in /  1016.8hPa WSW 8.7mph /  14.0km/h 16.1mph /  25.9km/h 69% 0in /  0.0mm
13:14 50 °F /  10.0 °C 39 °F /  3.9 °C 30in /  1016.8hPa SSW 13mph /  20.9km/h 17.4mph /  28.0km/h 66% 0in /  0.0mm
13:19 50.2 °F /  10.1 °C 39.2 °F /  4.0 °C 30in /  1016.8hPa WSW 12.8mph /  20.6km/h 17.4mph /  28.0km/h 66% 0in /  0.0mm
13:24 50.4 °F /  10.2 °C 39.7 °F /  4.3 °C 30in /  1016.1hPa SSW 10.5mph /  16.9km/h 14.8mph /  23.8km/h 67% 0in /  0.0mm
13:29 50.5 °F /  10.3 °C 39.9 °F /  4.4 °C 30in /  1016.1hPa SSW 9.8mph /  15.8km/h 14.8mph /  23.8km/h 67% 0in /  0.0mm
13:34 50.2 °F /  10.1 °C 38.5 °F /  3.6 °C 30in /  1016.1hPa SSW 17.2mph /  27.7km/h 17.9mph /  28.8km/h 64% 0in /  0.0mm
13:39 50.2 °F /  10.1 °C 38.8 °F /  3.8 °C 30in /  1016.8hPa South 10.1mph /  16.3km/h 19.7mph /  31.7km/h 65% 0in /  0.0mm
13:44 50.4 °F /  10.2 °C 39.4 °F /  4.1 °C 30in /  1016.8hPa SW 10.7mph /  17.2km/h 19.7mph /  31.7km/h 66% 0in /  0.0mm
13:49 50.7 °F /  10.4 °C 39.7 °F /  4.3 °C 30in /  1016.8hPa WSW 12.3mph /  19.8km/h 17mph /  27.4km/h 66% 0in /  0.0mm
13:54 50.9 °F /  10.5 °C 39 °F /  3.9 °C 30in /  1016.8hPa SW 10.1mph /  16.3km/h 17.4mph /  28.0km/h 64% 0in /  0.0mm
13:59 51.4 °F /  10.8 °C 39.6 °F /  4.2 °C 30in /  1016.8hPa WSW 8.5mph /  13.7km/h 17.7mph /  28.5km/h 64% 0in /  0.0mm
14:04 51.3 °F /  10.7 °C 39 °F /  3.9 °C 30in /  1016.8hPa SSW 12.8mph /  20.6km/h 18.8mph /  30.2km/h 63% 0in /  0.0mm
14:09 51.6 °F /  10.9 °C 39.7 °F /  4.3 °C 30in /  1016.1hPa SW 13mph /  20.9km/h 18.8mph /  30.2km/h 64% 0in /  0.0mm
14:14 51.4 °F /  10.8 °C 39.6 °F /  4.2 °C 30in /  1016.1hPa SSW 8.5mph /  13.7km/h 18.8mph /  30.2km/h 64% 0in /  0.0mm
14:19 51.3 °F /  10.7 °C 39.6 °F /  4.2 °C 30in /  1016.1hPa WSW 12.1mph /  19.5km/h 18.8mph /  30.2km/h 64% 0in /  0.0mm
14:24 51.1 °F /  10.6 °C 39.4 °F /  4.1 °C 30in /  1016.1hPa SSW 8.7mph /  14.0km/h 16.8mph /  27.0km/h 64% 0in /  0.0mm
14:29 51.6 °F /  10.9 °C 40.6 °F /  4.8 °C 30in /  1016.1hPa SSW 15.2mph /  24.5km/h 16.8mph /  27.0km/h 66% 0in /  0.0mm
14:34 51.6 °F /  10.9 °C 40.6 °F /  4.8 °C 30in /  1016.1hPa WSW 10.3mph /  16.6km/h 15.2mph /  24.5km/h 66% 0in /  0.0mm
14:39 51.4 °F /  10.8 °C 39.9 °F /  4.4 °C 30in /  1015.1hPa WSW 16.1mph /  25.9km/h 16.8mph /  27.0km/h 65% 0in /  0.0mm
14:44 51.1 °F /  10.6 °C 38.5 °F /  3.6 °C 30in /  1015.1hPa WSW 12.3mph /  19.8km/h 17.4mph /  28.0km/h 62% 0in /  0.0mm
14:49 51.3 °F /  10.7 °C 38.7 °F /  3.7 °C 30in /  1015.1hPa SW 12.8mph /  20.6km/h 23mph /  37.0km/h 62% 0in /  0.0mm
14:54 51.1 °F /  10.6 °C 39.4 °F /  4.1 °C 30in /  1016.1hPa SW 9.8mph /  15.8km/h 23mph /  37.0km/h 64% 0in /  0.0mm
14:59 51.1 °F /  10.6 °C 39.4 °F /  4.1 °C 30in /  1016.1hPa SW 15.4mph /  24.8km/h 17.4mph /  28.0km/h 64% 0in /  0.0mm
15:04 51.1 °F /  10.6 °C 40.1 °F /  4.5 °C 30in /  1016.1hPa WSW 14.8mph /  23.8km/h 21.9mph /  35.2km/h 66% 0in /  0.0mm
15:09 50.9 °F /  10.5 °C 39.6 °F /  4.2 °C 30in /  1016.1hPa WSW 12.8mph /  20.6km/h 21.9mph /  35.2km/h 65% 0in /  0.0mm
15:14 50.9 °F /  10.5 °C 39.9 °F /  4.4 °C 30in /  1016.1hPa WSW 11mph /  17.7km/h 17mph /  27.4km/h 66% 0in /  0.0mm
15:19 50.5 °F /  10.3 °C 38.5 °F /  3.6 °C 30in /  1016.1hPa SW 13mph /  20.9km/h 19.5mph /  31.4km/h 63% 0in /  0.0mm
15:24 50.5 °F /  10.3 °C 38.8 °F /  3.8 °C 30in /  1015.1hPa WSW 10.5mph /  16.9km/h 19.5mph /  31.4km/h 64% 0in /  0.0mm
15:29 50.4 °F /  10.2 °C 39 °F /  3.9 °C 30in /  1015.1hPa WSW 15.4mph /  24.8km/h 17.7mph /  28.5km/h 65% 0in /  0.0mm
15:34 50.4 °F /  10.2 °C 39.4 °F /  4.1 °C 30in /  1015.1hPa WSW 13.4mph /  21.6km/h 17.7mph /  28.5km/h 66% 0in /  0.0mm
15:39 50.2 °F /  10.1 °C 39.6 °F /  4.2 °C 30in /  1015.1hPa SW 8.5mph /  13.7km/h 15.2mph /  24.5km/h 67% 0in /  0.0mm
15:44 50.2 °F /  10.1 °C 39.2 °F /  4.0 °C 30in /  1015.1hPa WSW 12.8mph /  20.6km/h 15.7mph /  25.3km/h 66% 0in /  0.0mm
15:49 50.2 °F /  10.1 °C 39.6 °F /  4.2 °C 30in /  1015.1hPa WSW 10.1mph /  16.3km/h 15.7mph /  25.3km/h 67% 0in /  0.0mm
15:54 50.2 °F /  10.1 °C 39.6 °F /  4.2 °C 30in /  1015.1hPa SW 12.5mph /  20.1km/h 14.1mph /  22.7km/h 67% 0in /  0.0mm
15:59 50 °F /  10.0 °C 39.6 °F /  4.2 °C 30in /  1015.1hPa SSW 8.1mph /  13.0km/h 14.1mph /  22.7km/h 67% 0in /  0.0mm
16:04 50 °F /  10.0 °C 39.7 °F /  4.3 °C 30in /  1015.1hPa SW 8.7mph /  14.0km/h 13.2mph /  21.2km/h 68% 0in /  0.0mm
16:09 50 °F /  10.0 °C 39.7 °F /  4.3 °C 30in /  1015.1hPa SW 12.5mph /  20.1km/h 13.9mph /  22.4km/h 68% 0in /  0.0mm
16:14 50 °F /  10.0 °C 39.6 °F /  4.2 °C 30in /  1015.1hPa WSW 7.6mph /  12.2km/h 14.8mph /  23.8km/h 67% 0in /  0.0mm
16:19 49.8 °F /  9.9 °C 39.7 °F /  4.3 °C 30in /  1015.1hPa SSW 12.5mph /  20.1km/h 15.2mph /  24.5km/h 68% 0in /  0.0mm
16:24 49.8 °F /  9.9 °C 39.4 °F /  4.1 °C 30in /  1015.1hPa WSW 8.5mph /  13.7km/h 15.2mph /  24.5km/h 67% 0in /  0.0mm
16:29 49.8 °F /  9.9 °C 39.7 °F /  4.3 °C 30in /  1015.1hPa WSW 9.8mph /  15.8km/h 14.8mph /  23.8km/h 68% 0in /  0.0mm
16:34 49.8 °F /  9.9 °C 39.7 °F /  4.3 °C 30in /  1015.1hPa SW 5.8mph /  9.3km/h 13.2mph /  21.2km/h 68% 0in /  0.0mm
16:39 49.8 °F /  9.9 °C 39.7 °F /  4.3 °C 30in /  1015.1hPa SW 12.8mph /  20.6km/h 12.8mph /  20.6km/h 68% 0in /  0.0mm
16:44 49.6 °F /  9.8 °C 39 °F /  3.9 °C 30in /  1015.1hPa SW 10.3mph /  16.6km/h 15.7mph /  25.3km/h 67% 0in /  0.0mm
16:49 49.6 °F /  9.8 °C 39.6 °F /  4.2 °C 30in /  1015.1hPa SSW 10.5mph /  16.9km/h 15.7mph /  25.3km/h 68% 0in /  0.0mm
16:54 49.5 °F /  9.7 °C 39.4 °F /  4.1 °C 30in /  1015.1hPa WSW 7.6mph /  12.2km/h 13mph /  20.9km/h 68% 0in /  0.0mm
16:59 49.5 °F /  9.7 °C 39.7 °F /  4.3 °C 30in /  1015.1hPa WSW 7.8mph /  12.6km/h 13.6mph /  21.9km/h 69% 0in /  0.0mm
17:04 49.3 °F /  9.6 °C 39.6 °F /  4.2 °C 30in /  1015.1hPa SW 10.1mph /  16.3km/h 13.6mph /  21.9km/h 69% 0in /  0.0mm
17:09 49.1 °F /  9.5 °C 39.4 °F /  4.1 °C 30in /  1015.1hPa SW 8.1mph /  13.0km/h 11.9mph /  19.1km/h 69% 0in /  0.0mm
17:14 49.1 °F /  9.5 °C 39.4 °F /  4.1 °C 30in /  1015.1hPa SW 7.6mph /  12.2km/h 12.3mph /  19.8km/h 69% 0in /  0.0mm
17:19 49.1 °F /  9.5 °C 39.4 °F /  4.1 °C 30in /  1015.1hPa SW 7.4mph /  11.9km/h 12.3mph /  19.8km/h 69% 0in /  0.0mm
17:24 48.9 °F /  9.4 °C 39.6 °F /  4.2 °C 30in /  1015.1hPa SW 9.8mph /  15.8km/h 11mph /  17.7km/h 70% 0in /  0.0mm
17:29 48.9 °F /  9.4 °C 39.6 °F /  4.2 °C 30in /  1015.1hPa SW 5.6mph /  9.0km/h 10.5mph /  16.9km/h 70% 0in /  0.0mm
17:34 48.9 °F /  9.4 °C 39.6 °F /  4.2 °C 30in /  1015.1hPa SSW 5.6mph /  9.0km/h 10.1mph /  16.3km/h 70% 0in /  0.0mm
17:39 48.9 °F /  9.4 °C 39.6 °F /  4.2 °C 30in /  1015.1hPa SSW 8.5mph /  13.7km/h 11.4mph /  18.3km/h 70% 0in /  0.0mm
17:44 48.9 °F /  9.4 °C 39.6 °F /  4.2 °C 30in /  1015.1hPa WSW 8.5mph /  13.7km/h 11.9mph /  19.1km/h 70% 0in /  0.0mm
17:49 48.7 °F /  9.3 °C 39.4 °F /  4.1 °C 30in /  1015.1hPa SW 5.6mph /  9.0km/h 11.9mph /  19.1km/h 70% 0in /  0.0mm
17:54 48.7 °F /  9.3 °C 39.7 °F /  4.3 °C 30in /  1015.1hPa SSW 6mph /  9.7km/h 8.5mph /  13.7km/h 71% 0in /  0.0mm
17:59 48.6 °F /  9.2 °C 39.6 °F /  4.2 °C 30in /  1015.1hPa WSW 6mph /  9.7km/h 7.8mph /  12.6km/h 71% 0in /  0.0mm
18:04 48.4 °F /  9.1 °C 39.4 °F /  4.1 °C 30in /  1015.1hPa SW 4.3mph /  6.9km/h 7.8mph /  12.6km/h 71% 0in /  0.0mm
18:05 48.4 °F /  9.1 °C 39.4 °F /  4.1 °C 30in /  1015.1hPa WSW 5.8mph /  9.3km/h 7.8mph /  12.6km/h 71% 0in /  0.0mm
18:10 48.4 °F /  9.1 °C 39.7 °F /  4.3 °C 30in /  1015.1hPa WSW 6.3mph /  10.1km/h 6.5mph /  10.5km/h 72% 0in /  0.0mm
18:15 48 °F /  8.9 °C 39.6 °F /  4.2 °C 30in /  1015.1hPa WSW 4.3mph /  6.9km/h 7.8mph /  12.6km/h 72% 0in /  0.0mm
18:20 47.8 °F /  8.8 °C 39.6 °F /  4.2 °C 30in /  1015.1hPa West 4.9mph /  7.9km/h 7.8mph /  12.6km/h 73% 0in /  0.0mm
18:25 47.5 °F /  8.6 °C 39.6 °F /  4.2 °C 30in /  1016.1hPa WSW 3.6mph /  5.8km/h 7.4mph /  11.9km/h 74% 0in /  0.0mm
18:30 47.1 °F /  8.4 °C 39.4 °F /  4.1 °C 30in /  1016.1hPa WSW 2.9mph /  4.7km/h 5.6mph /  9.0km/h 74% 0in /  0.0mm
18:35 46.8 °F /  8.2 °C 39.4 °F /  4.1 °C 30in /  1016.1hPa SW 3.8mph /  6.1km/h 4.3mph /  6.9km/h 75% 0in /  0.0mm
18:40 46.6 °F /  8.1 °C 39 °F /  3.9 °C 30in /  1015.1hPa SW 3.1mph /  5.0km/h 4.7mph /  7.6km/h 75% 0in /  0.0mm
18:45 46.2 °F /  7.9 °C 39 °F /  3.9 °C 30in /  1015.1hPa SW 2.7mph /  4.3km/h 4.7mph /  7.6km/h 76% 0in /  0.0mm
18:50 46 °F /  7.8 °C 39 °F /  3.9 °C 30in /  1015.1hPa SW 2.7mph /  4.3km/h 4mph /  6.4km/h 76% 0in /  0.0mm
18:55 45.9 °F /  7.7 °C 39 °F /  3.9 °C 30in /  1015.1hPa SW 3.6mph /  5.8km/h 3.6mph /  5.8km/h 77% 0in /  0.0mm
19:00 46 °F /  7.8 °C 39.6 °F /  4.2 °C 30in /  1015.1hPa WSW 2.5mph /  4.0km/h 4mph /  6.4km/h 78% 0in /  0.0mm
19:05 46 °F /  7.8 °C 39.6 °F /  4.2 °C 30in /  1015.1hPa WSW 2.9mph /  4.7km/h 4mph /  6.4km/h 78% 0in /  0.0mm
19:10 45.9 °F /  7.7 °C 39.7 °F /  4.3 °C 30in /  1016.1hPa WSW 3.4mph /  5.5km/h 3.6mph /  5.8km/h 79% 0in /  0.0mm
19:15 45.9 °F /  7.7 °C 40.1 °F /  4.5 °C 30in /  1016.1hPa WSW 2.9mph /  4.7km/h 4mph /  6.4km/h 80% 0in /  0.0mm
19:20 45.9 °F /  7.7 °C 39.9 °F /  4.4 °C 30in /  1016.1hPa SW 2.7mph /  4.3km/h 4mph /  6.4km/h 80% 0in /  0.0mm
19:25 45.9 °F /  7.7 °C 40.3 °F /  4.6 °C 30in /  1015.1hPa SSW 3.1mph /  5.0km/h 4mph /  6.4km/h 81% 0in /  0.0mm
19:30 45.9 °F /  7.7 °C 40.5 °F /  4.7 °C 30in /  1015.1hPa SSW 4.9mph /  7.9km/h 4.9mph /  7.9km/h 81% 0in /  0.0mm
19:35 45.9 °F /  7.7 °C 40.5 °F /  4.7 °C 30in /  1015.1hPa SSW 2.5mph /  4.0km/h 4.9mph /  7.9km/h 81% 0in /  0.0mm
19:40 45.9 °F /  7.7 °C 40.5 °F /  4.7 °C 30in /  1015.1hPa SSW 0.9mph /  1.4km/h 3.6mph /  5.8km/h 81% 0in /  0.0mm
19:45 45.9 °F /  7.7 °C 40.5 °F /  4.7 °C 30in /  1015.1hPa WSW 2.7mph /  4.3km/h 3.6mph /  5.8km/h 81% 0in /  0.0mm
19:50 46 °F /  7.8 °C 40.6 °F /  4.8 °C 30in /  1015.1hPa SW 3.4mph /  5.5km/h 4.9mph /  7.9km/h 81% 0in /  0.0mm
19:55 46 °F /  7.8 °C 40.6 °F /  4.8 °C 30in /  1015.1hPa SSW 2.5mph /  4.0km/h 4.9mph /  7.9km/h 81% 0in /  0.0mm
20:00 46 °F /  7.8 °C 40.8 °F /  4.9 °C 30in /  1015.1hPa SSW 4mph /  6.4km/h 7.4mph /  11.9km/h 82% 0in /  0.0mm
20:05 46.2 °F /  7.9 °C 41.2 °F /  5.1 °C 30in /  1015.1hPa SSW 2.9mph /  4.7km/h 7.4mph /  11.9km/h 82% 0in /  0.0mm
20:10 46.2 °F /  7.9 °C 41.2 °F /  5.1 °C 30in /  1015.1hPa SW 4.3mph /  6.9km/h 6mph /  9.7km/h 82% 0in /  0.0mm
20:15 46.6 °F /  8.1 °C 41.4 °F /  5.2 °C 30in /  1015.1hPa SSW 3.8mph /  6.1km/h 7.4mph /  11.9km/h 82% 0in /  0.0mm
20:20 46.6 °F /  8.1 °C 41.4 °F /  5.2 °C 30in /  1015.1hPa SW 3.8mph /  6.1km/h 7.4mph /  11.9km/h 82% 0in /  0.0mm
20:25 46.6 °F /  8.1 °C 41.4 °F /  5.2 °C 30in /  1015.1hPa SSW 3.1mph /  5.0km/h 6mph /  9.7km/h 82% 0in /  0.0mm
20:30 46.8 °F /  8.2 °C 41.5 °F /  5.3 °C 30in /  1015.1hPa WSW 7.2mph /  11.6km/h 7.8mph /  12.6km/h 82% 0in /  0.0mm
20:35 46.8 °F /  8.2 °C 41.5 °F /  5.3 °C 30in /  1015.1hPa SSW 5.8mph /  9.3km/h 7.8mph /  12.6km/h 82% 0in /  0.0mm
20:40 46.9 °F /  8.3 °C 41.7 °F /  5.4 °C 30in /  1015.1hPa WSW 4.5mph /  7.2km/h 7.8mph /  12.6km/h 82% 0in /  0.0mm
20:45 46.9 °F /  8.3 °C 41.5 °F /  5.3 °C 30in /  1015.1hPa SW 4.3mph /  6.9km/h 7.8mph /  12.6km/h 81% 0in /  0.0mm
20:50 46.9 °F /  8.3 °C 41.5 °F /  5.3 °C 30in /  1015.1hPa SSW 5.8mph /  9.3km/h 7.4mph /  11.9km/h 81% 0in /  0.0mm
20:55 46.9 °F /  8.3 °C 41.5 °F /  5.3 °C 29.9in /  1014.1hPa WSW 7.4mph /  11.9km/h 8.7mph /  14.0km/h 81% 0in /  0.0mm
21:00 46.9 °F /  8.3 °C 41.5 °F /  5.3 °C 29.9in /  1014.1hPa SW 4.9mph /  7.9km/h 9.8mph /  15.8km/h 81% 0in /  0.0mm
21:05 46.8 °F /  8.2 °C 41.4 °F /  5.2 °C 29.9in /  1014.1hPa WSW 7.2mph /  11.6km/h 9.8mph /  15.8km/h 81% 0in /  0.0mm
21:10 46.8 °F /  8.2 °C 41.4 °F /  5.2 °C 29.9in /  1014.1hPa SW 6mph /  9.7km/h 8.9mph /  14.3km/h 81% 0in /  0.0mm
21:15 46.8 °F /  8.2 °C 41.4 °F /  5.2 °C 29.9in /  1014.1hPa SW 2.5mph /  4.0km/h 8.7mph /  14.0km/h 81% 0in /  0.0mm
21:20 46.6 °F /  8.1 °C 41.2 °F /  5.1 °C 29.9in /  1014.1hPa South 2.7mph /  4.3km/h 6.3mph /  10.1km/h 81% 0in /  0.0mm
21:25 46.6 °F /  8.1 °C 40.8 °F /  4.9 °C 29.9in /  1014.1hPa South 4.3mph /  6.9km/h 5.4mph /  8.7km/h 81% 0in /  0.0mm
21:30 46.2 °F /  7.9 °C 40.8 °F /  4.9 °C 29.9in /  1014.1hPa SSW 2.5mph /  4.0km/h 7.4mph /  11.9km/h 81% 0in /  0.0mm
21:35 46.2 °F /  7.9 °C 40.8 °F /  4.9 °C 29.9in /  1014.1hPa South 4.7mph /  7.6km/h 7.4mph /  11.9km/h 81% 0in /  0.0mm
21:40 46.2 °F /  7.9 °C 41.2 °F /  5.1 °C 29.9in /  1014.1hPa SSW 3.6mph /  5.8km/h 6.5mph /  10.5km/h 82% 0in /  0.0mm
21:45 46.2 °F /  7.9 °C 41.2 °F /  5.1 °C 29.9in /  1014.1hPa SSW 4mph /  6.4km/h 6mph /  9.7km/h 82% 0in /  0.0mm
21:50 46.2 °F /  7.9 °C 41.2 °F /  5.1 °C 29.9in /  1014.1hPa South 4mph /  6.4km/h 6mph /  9.7km/h 82% 0in /  0.0mm
21:55 46 °F /  7.8 °C 40.8 °F /  4.9 °C 29.9in /  1014.1hPa SSW 3.6mph /  5.8km/h 6mph /  9.7km/h 82% 0in /  0.0mm
22:00 46 °F /  7.8 °C 40.8 °F /  4.9 °C 29.9in /  1014.1hPa SSW 3.1mph /  5.0km/h 5.8mph /  9.3km/h 82% 0in /  0.0mm
22:05 46 °F /  7.8 °C 40.8 °F /  4.9 °C 29.9in /  1014.1hPa SW 2.9mph /  4.7km/h 5.8mph /  9.3km/h 82% 0in /  0.0mm
22:10 45.9 °F /  7.7 °C 41.2 °F /  5.1 °C 29.9in /  1014.1hPa South 3.8mph /  6.1km/h 5.8mph /  9.3km/h 83% 0in /  0.0mm
22:15 45.9 °F /  7.7 °C 40.6 °F /  4.8 °C 29.9in /  1014.1hPa SSW 5.6mph /  9.0km/h 8.5mph /  13.7km/h 82% 0in /  0.0mm
22:20 45.9 °F /  7.7 °C 40.6 °F /  4.8 °C 29.9in /  1014.1hPa South 6.3mph /  10.1km/h 8.5mph /  13.7km/h 82% 0in /  0.0mm
22:21 45.9 °F /  7.7 °C 40.6 °F /  4.8 °C 29.9in /  1014.1hPa SSW 5.4mph /  8.7km/h 7.6mph /  12.2km/h 82% 0in /  0.0mm
22:26 45.9 °F /  7.7 °C 40.6 °F /  4.8 °C 29.9in /  1013.1hPa SSE 7.6mph /  12.2km/h 7.6mph /  12.2km/h 82% 0in /  0.0mm
22:31 45.9 °F /  7.7 °C 40.5 °F /  4.7 °C 29.9in /  1013.1hPa SSW 6.5mph /  10.5km/h 9.4mph /  15.1km/h 81% 0in /  0.0mm
22:36 46 °F /  7.8 °C 40.3 °F /  4.6 °C 29.9in /  1013.1hPa South 4.7mph /  7.6km/h 9.4mph /  15.1km/h 80% 0in /  0.0mm
22:41 46 °F /  7.8 °C 40.3 °F /  4.6 °C 29.9in /  1013.1hPa SW 4.9mph /  7.9km/h 7.2mph /  11.6km/h 80% 0in /  0.0mm
22:46 45.9 °F /  7.7 °C 40.1 °F /  4.5 °C 29.9in /  1013.1hPa SSW 7.4mph /  11.9km/h 7.4mph /  11.9km/h 80% 0in /  0.0mm
22:51 45.9 °F /  7.7 °C 40.5 °F /  4.7 °C 29.9in /  1013.1hPa SSW 3.6mph /  5.8km/h 7.4mph /  11.9km/h 81% 0in /  0.0mm
22:56 45.9 °F /  7.7 °C 40.5 °F /  4.7 °C 29.9in /  1013.1hPa South 4.9mph /  7.9km/h 8.1mph /  13.0km/h 81% 0in /  0.0mm
22:58 45.9 °F /  7.7 °C 40.5 °F /  4.7 °C 29.9in /  1013.1hPa SSW 6mph /  9.7km/h 8.1mph /  13.0km/h 81% 0in /  0.0mm
23:03 45.9 °F /  7.7 °C 40.5 °F /  4.7 °C 29.9in /  1013.1hPa SSW 5.6mph /  9.0km/h 9.2mph /  14.8km/h 81% 0in /  0.0mm
23:08 45.9 °F /  7.7 °C 40.5 °F /  4.7 °C 29.9in /  1013.1hPa SSW 7.8mph /  12.6km/h 9.2mph /  14.8km/h 81% 0in /  0.0mm
23:13 45.9 °F /  7.7 °C 40.5 °F /  4.7 °C 29.9in /  1013.1hPa WSW 7.4mph /  11.9km/h 8.7mph /  14.0km/h 81% 0in /  0.0mm
23:18 46 °F /  7.8 °C 40.6 °F /  4.8 °C 29.9in /  1013.1hPa SSW 6.3mph /  10.1km/h 11mph /  17.7km/h 81% 0in /  0.0mm
23:20 46 °F /  7.8 °C 40.6 °F /  4.8 °C 29.9in /  1013.1hPa SSW 6.3mph /  10.1km/h 11mph /  17.7km/h 81% 0in /  0.0mm
23:25 46.2 °F /  7.9 °C 40.5 °F /  4.7 °C 29.9in /  1013.1hPa SSW 5.4mph /  8.7km/h 11mph /  17.7km/h 80% 0in /  0.0mm
23:30 46.6 °F /  8.1 °C 40.3 °F /  4.6 °C 29.9in /  1013.1hPa SSW 12.1mph /  19.5km/h 12.1mph /  19.5km/h 79% 0in /  0.0mm
23:35 46.6 °F /  8.1 °C 40.1 °F /  4.5 °C 29.9in /  1013.1hPa SSW 6.5mph /  10.5km/h 12.1mph /  19.5km/h 78% 0in /  0.0mm
23:40 46.8 °F /  8.2 °C 39.9 °F /  4.4 °C 29.9in /  1013.1hPa SSW 7.8mph /  12.6km/h 13.9mph /  22.4km/h 77% 0in /  0.0mm
23:45 46.8 °F /  8.2 °C 39.9 °F /  4.4 °C 29.9in /  1013.1hPa South 10.3mph /  16.6km/h 13.9mph /  22.4km/h 77% 0in /  0.0mm
23:50 46.9 °F /  8.3 °C 39.7 °F /  4.3 °C 29.9in /  1013.1hPa SW 5.8mph /  9.3km/h 13.4mph /  21.6km/h 76% 0in /  0.0mm
23:55 46.9 °F /  8.3 °C 39.7 °F /  4.3 °C 29.9in /  1012.1hPa SSW 9.2mph /  14.8km/h 11.9mph /  19.1km/h 76% 0in /  0.0mm
Données Historique de Météo Turbie

Mise a jour : 24/05/2018 15:46:13
Généré par Cumulus 1.9.4 (1099)